Etusivu
METAR-TAF:

METAR-TAF

Lentoasemat :

North Battleford, Saskatchewan, Kanada

Leveyspiiri: 52-46N, Pituuspiiri: 108-15W, korkeus merenpinnasta: 548 m

Tämänhetkinen sää

Tämä raportti tehtiin 49 minuuttia sitten, kello 03.00 UTC
Tuuli 12 kn idästä/kaakosta
Lämpötila 4°C
Kosteus 75%
Ilmanpaine 1006 hPa
Näkyvyys: 14.5 km
selkeää

METAR: CYQW 170300Z AUTO 11012KT 9SM CLR 04/M00 A2970 RMK SLP083

Aika: 21:49 (03:49 UTC)

Sääennuste

Tämä raportti tehtiin 4 tuntia ja 9 minuuttia sitten, kello 23.40 UTC
Ennuste voimassa 17. päivästä klo 00 UTC - 17. päivään klo 12 UTC
Tuuli 8 kn idästä/kaakosta
Näkyvyys: 10 km
selkeää

TAF: CYQW 162340Z 1700/1712 12008KT P6SM SKC RMK FCST BASED ON AUTO OBS. NXT FCST BY 170600Z

Säähavainnot ja -ennusteet yli 4000 lentoasemalta (METAR- ja TAF-raportit).

Käytössä olevat sääasemat on merkitty karttaan keltaisilla ja punaisilla pisteillä.

Aseta hiiri pisteen päälle nähdäksesi sääaseman nimen.

Klikkaa sitten nähdäksesi säähavainnot ja -ennusteet.

Kartan vaihtaminen: klikkaa mustalla rastilla varustettuja vihreitä pisteitä, niin voit zoomata sisään; viivalla varustettua vihreää pistettä, niin voit zoomata ulos tai vihreitä nuolia, niin pääset viereisille kartoille.


METAR-TAF: